sensor_id;sensor_type;location;lat;lon;timestamp;pressure;altitude;pressure_sealevel;temperature;humidity
37904;BME280;23738;50.422;18.758;2022-10-15T00:01:15;98420.09;;;11.49;79.00
37904;BME280;23738;50.422;18.758;2022-10-15T00:03:43;98415.30;;;11.48;78.84
37904;BME280;23738;50.422;18.758;2022-10-15T00:06:13;98416.91;;;11.49;78.99
37904;BME280;23738;50.422;18.758;2022-10-15T00:08:41;98416.20;;;11.51;79.06
37904;BME280;23738;50.422;18.758;2022-10-15T00:11:12;98418.44;;;11.55;79.03
37904;BME280;23738;50.422;18.758;2022-10-15T00:13:38;98418.54;;;11.57;79.11
37904;BME280;23738;50.422;18.758;2022-10-15T00:16:17;98416.41;;;11.57;78.98
37904;BME280;23738;50.422;18.758;2022-10-15T00:18:41;98409.89;;;11.53;78.90
37904;BME280;23738;50.422;18.758;2022-10-15T00:21:09;98410.02;;;11.48;78.90
37904;BME280;23738;50.422;18.758;2022-10-15T00:23:36;98408.80;;;11.44;79.02
37904;BME280;23738;50.422;18.758;2022-10-15T00:26:06;98412.45;;;11.43;79.12
37904;BME280;23738;50.422;18.758;2022-10-15T00:28:36;98418.16;;;11.47;79.25
37904;BME280;23738;50.422;18.758;2022-10-15T00:31:11;98407.58;;;11.47;79.09
37904;BME280;23738;50.422;18.758;2022-10-15T00:33:39;98409.09;;;11.45;79.06
37904;BME280;23738;50.422;18.758;2022-10-15T00:36:09;98408.99;;;11.43;79.08
37904;BME280;23738;50.422;18.758;2022-10-15T00:38:36;98411.44;;;11.44;79.16
37904;BME280;23738;50.422;18.758;2022-10-15T00:41:04;98412.36;;;11.47;79.25
37904;BME280;23738;50.422;18.758;2022-10-15T00:46:17;98407.95;;;11.50;79.27
37904;BME280;23738;50.422;18.758;2022-10-15T00:48:52;98411.03;;;11.47;79.14
37904;BME280;23738;50.422;18.758;2022-10-15T00:51:19;98404.83;;;11.44;79.04
37904;BME280;23738;50.422;18.758;2022-10-15T00:53:47;98406.34;;;11.43;79.00
37904;BME280;23738;50.422;18.758;2022-10-15T00:56:15;98405.84;;;11.43;79.13
37904;BME280;23738;50.422;18.758;2022-10-15T00:58:43;98405.74;;;11.47;79.28
37904;BME280;23738;50.422;18.758;2022-10-15T01:01:08;98400.94;;;11.54;79.30
37904;BME280;23738;50.422;18.758;2022-10-15T01:03:35;98395.23;;;11.57;79.31
37904;BME280;23738;50.422;18.758;2022-10-15T01:06:02;98393.17;;;11.59;79.31
37904;BME280;23738;50.422;18.758;2022-10-15T01:08:29;98387.88;;;11.59;79.23
37904;BME280;23738;50.422;18.758;2022-10-15T01:17:27;98382.70;;;11.61;79.43
37904;BME280;23738;50.422;18.758;2022-10-15T01:37:52;98358.30;;;11.81;79.75
37904;BME280;23738;50.422;18.758;2022-10-15T01:40:46;98353.31;;;11.82;79.72
37904;BME280;23738;50.422;18.758;2022-10-15T01:43:19;98347.95;;;11.80;79.78
37904;BME280;23738;50.422;18.758;2022-10-15T01:45:51;98343.88;;;11.77;79.73
37904;BME280;23738;50.422;18.758;2022-10-15T01:48:20;98345.81;;;11.79;79.99
37904;BME280;23738;50.422;18.758;2022-10-15T01:50:50;98340.08;;;11.82;80.11
37904;BME280;23738;50.422;18.758;2022-10-15T01:53:19;98335.80;;;11.81;80.06
37904;BME280;23738;50.422;18.758;2022-10-15T01:55:53;98331.77;;;11.79;80.04
37904;BME280;23738;50.422;18.758;2022-10-15T01:58:23;98340.42;;;11.77;80.10
37904;BME280;23738;50.422;18.758;2022-10-15T02:00:51;98337.17;;;11.75;80.16
37904;BME280;23738;50.422;18.758;2022-10-15T02:03:19;98339.30;;;11.75;80.27
37904;BME280;23738;50.422;18.758;2022-10-15T02:05:49;98339.61;;;11.76;80.32
37904;BME280;23738;50.422;18.758;2022-10-15T02:08:36;98337.06;;;11.79;80.30
37904;BME280;23738;50.422;18.758;2022-10-15T02:11:08;98328.52;;;11.77;80.04
37904;BME280;23738;50.422;18.758;2022-10-15T02:19:17;98326.93;;;11.63;79.78
37904;BME280;23738;50.422;18.758;2022-10-15T02:24:36;98317.70;;;11.56;79.32
37904;BME280;23738;50.422;18.758;2022-10-15T02:27:05;98319.34;;;11.50;79.14
37904;BME280;23738;50.422;18.758;2022-10-15T02:29:33;98322.42;;;11.47;79.21
37904;BME280;23738;50.422;18.758;2022-10-15T02:32:02;98314.19;;;11.46;79.24
37904;BME280;23738;50.422;18.758;2022-10-15T02:34:31;98311.44;;;11.44;79.19
37904;BME280;23738;50.422;18.758;2022-10-15T02:37:00;98310.93;;;11.44;79.33
37904;BME280;23738;50.422;18.758;2022-10-15T02:39:28;98308.80;;;11.44;79.34
37904;BME280;23738;50.422;18.758;2022-10-15T02:41:55;98300.45;;;11.47;79.42
37904;BME280;23738;50.422;18.758;2022-10-15T02:44:22;98296.69;;;11.45;79.36
37904;BME280;23738;50.422;18.758;2022-10-15T02:46:47;98287.84;;;11.42;79.31
37904;BME280;23738;50.422;18.758;2022-10-15T02:49:13;98290.17;;;11.41;79.35
37904;BME280;23738;50.422;18.758;2022-10-15T02:51:39;98290.98;;;11.42;79.51
37904;BME280;23738;50.422;18.758;2022-10-15T02:54:06;98286.00;;;11.43;79.15
37904;BME280;23738;50.422;18.758;2022-10-15T02:56:32;98286.00;;;11.43;79.15
37904;BME280;23738;50.422;18.758;2022-10-15T02:58:59;98289.09;;;11.40;79.36
37904;BME280;23738;50.422;18.758;2022-10-15T03:01:25;98285.02;;;11.37;79.32
37904;BME280;23738;50.422;18.758;2022-10-15T03:03:51;98279.33;;;11.34;79.32
37904;BME280;23738;50.422;18.758;2022-10-15T03:06:17;98276.52;;;11.29;79.20
37904;BME280;23738;50.422;18.758;2022-10-15T03:08:42;98276.72;;;11.27;79.24
37904;BME280;23738;50.422;18.758;2022-10-15T03:11:09;98262.38;;;11.26;79.11
37904;BME280;23738;50.422;18.758;2022-10-15T03:13:37;98257.22;;;11.22;78.88
37904;BME280;23738;50.422;18.758;2022-10-15T03:16:08;98253.59;;;11.16;78.79
37904;BME280;23738;50.422;18.758;2022-10-15T03:18:35;98249.42;;;11.11;78.73
37904;BME280;23738;50.422;18.758;2022-10-15T03:21:02;98251.90;;;11.06;78.56
37904;BME280;23738;50.422;18.758;2022-10-15T03:23:29;98253.55;;;11.00;78.60
37904;BME280;23738;50.422;18.758;2022-10-15T03:25:55;98251.42;;;11.00;78.73
37904;BME280;23738;50.422;18.758;2022-10-15T03:28:21;98248.98;;;10.98;78.62
37904;BME280;23738;50.422;18.758;2022-10-15T03:30:47;98249.38;;;10.95;78.62
37904;BME280;23738;50.422;18.758;2022-10-15T03:33:13;98242.39;;;10.92;78.65
37904;BME280;23738;50.422;18.758;2022-10-15T03:35:39;98238.53;;;10.88;78.66
37904;BME280;23738;50.422;18.758;2022-10-15T03:38:06;98239.67;;;10.83;78.74
37904;BME280;23738;50.422;18.758;2022-10-15T03:40:32;98241.00;;;10.83;78.84
37904;BME280;23738;50.422;18.758;2022-10-15T03:42:58;98233.69;;;10.85;78.98
37904;BME280;23738;50.422;18.758;2022-10-15T03:45:25;98236.59;;;10.86;79.12
37904;BME280;23738;50.422;18.758;2022-10-15T03:47:51;98231.75;;;10.83;79.13
37904;BME280;23738;50.422;18.758;2022-10-15T03:50:17;98217.92;;;10.81;79.24
37904;BME280;23738;50.422;18.758;2022-10-15T03:52:43;98226.56;;;10.79;79.20
37904;BME280;23738;50.422;18.758;2022-10-15T03:55:10;98221.20;;;10.76;79.37
37904;BME280;23738;50.422;18.758;2022-10-15T03:57:37;98221.41;;;10.74;79.49
37904;BME280;23738;50.422;18.758;2022-10-15T04:00:05;98226.26;;;10.78;79.70
37904;BME280;23738;50.422;18.758;2022-10-15T04:02:33;98222.60;;;10.79;79.79
37904;BME280;23738;50.422;18.758;2022-10-15T04:04:58;98227.48;;;10.82;79.92
37904;BME280;23738;50.422;18.758;2022-10-15T04:07:24;98219.25;;;10.81;79.91
37904;BME280;23738;50.422;18.758;2022-10-15T04:09:50;98222.70;;;10.81;80.10
37904;BME280;23738;50.422;18.758;2022-10-15T04:12:16;98212.44;;;10.82;80.17
37904;BME280;23738;50.422;18.758;2022-10-15T04:14:42;98207.77;;;10.84;80.45
37904;BME280;23738;50.422;18.758;2022-10-15T04:17:08;98201.64;;;10.90;80.56
37904;BME280;23738;50.422;18.758;2022-10-15T04:19:34;98209.44;;;10.94;80.61
37904;BME280;23738;50.422;18.758;2022-10-15T04:22:00;98209.23;;;10.96;80.65
37904;BME280;23738;50.422;18.758;2022-10-15T04:24:26;98206.59;;;10.96;80.72
37904;BME280;23738;50.422;18.758;2022-10-15T04:26:52;98207.81;;;11.00;80.80
37904;BME280;23738;50.422;18.758;2022-10-15T04:29:18;98211.95;;;11.05;81.03
37904;BME280;23738;50.422;18.758;2022-10-15T04:31:44;98204.92;;;11.08;81.11
37904;BME280;23738;50.422;18.758;2022-10-15T04:34:10;98223.70;;;11.16;81.40
37904;BME280;23738;50.422;18.758;2022-10-15T04:36:36;98214.24;;;11.17;81.21
37904;BME280;23738;50.422;18.758;2022-10-15T04:39:03;98204.55;;;11.20;81.23
37904;BME280;23738;50.422;18.758;2022-10-15T04:41:29;98208.52;;;11.20;81.23
37904;BME280;23738;50.422;18.758;2022-10-15T04:43:57;98205.67;;;11.22;81.35
37904;BME280;23738;50.422;18.758;2022-10-15T04:46:23;98203.42;;;11.25;81.42
37904;BME280;23738;50.422;18.758;2022-10-15T04:48:49;98200.64;;;11.29;81.52
37904;BME280;23738;50.422;18.758;2022-10-15T04:51:17;98202.78;;;11.30;81.54
37904;BME280;23738;50.422;18.758;2022-10-15T04:53:44;98209.48;;;11.32;81.45
37904;BME280;23738;50.422;18.758;2022-10-15T04:56:12;98204.61;;;11.29;81.52
37904;BME280;23738;50.422;18.758;2022-10-15T04:58:42;98206.33;;;11.33;81.62
37904;BME280;23738;50.422;18.758;2022-10-15T05:01:12;98205.38;;;11.36;81.65
37904;BME280;23738;50.422;18.758;2022-10-15T05:03:42;98211.07;;;11.40;81.75
37904;BME280;23738;50.422;18.758;2022-10-15T05:06:14;98201.06;;;11.42;81.71
37904;BME280;23738;50.422;18.758;2022-10-15T05:08:45;98209.52;;;11.41;81.75
37904;BME280;23738;50.422;18.758;2022-10-15T05:13:44;98210.72;;;11.45;81.73
37904;BME280;23738;50.422;18.758;2022-10-15T05:18:42;98204.20;;;11.48;81.78
37904;BME280;23738;50.422;18.758;2022-10-15T05:21:10;98205.83;;;11.49;81.79
37904;BME280;23738;50.422;18.758;2022-10-15T05:23:36;98209.05;;;11.51;81.91
37904;BME280;23738;50.422;18.758;2022-10-15T05:26:05;98204.06;;;11.52;81.84
37904;BME280;23738;50.422;18.758;2022-10-15T05:28:33;98200.41;;;11.53;81.88
37904;BME280;23738;50.422;18.758;2022-10-15T05:31:08;98203.86;;;11.54;81.92
37904;BME280;23738;50.422;18.758;2022-10-15T05:33:31;98205.34;;;11.59;81.96
37904;BME280;23738;50.422;18.758;2022-10-15T05:36:06;98199.64;;;11.62;81.96
37904;BME280;23738;50.422;18.758;2022-10-15T05:38:34;98208.23;;;11.66;82.07
37904;BME280;23738;50.422;18.758;2022-10-15T05:41:01;98213.33;;;11.68;81.92
37904;BME280;23738;50.422;18.758;2022-10-15T05:43:26;98215.25;;;11.70;81.97
37904;BME280;23738;50.422;18.758;2022-10-15T05:45:53;98210.56;;;11.72;82.00
37904;BME280;23738;50.422;18.758;2022-10-15T05:48:20;98213.40;;;11.77;82.09
37904;BME280;23738;50.422;18.758;2022-10-15T05:50:46;98217.02;;;11.82;82.06
37904;BME280;23738;50.422;18.758;2022-10-15T05:53:11;98217.41;;;11.86;82.03
37904;BME280;23738;50.422;18.758;2022-10-15T05:55:37;98219.64;;;11.89;82.05
37904;BME280;23738;50.422;18.758;2022-10-15T05:58:03;98218.08;;;11.91;81.92
37904;BME280;23738;50.422;18.758;2022-10-15T06:00:30;98221.53;;;11.91;81.96
37904;BME280;23738;50.422;18.758;2022-10-15T06:02:56;98223.16;;;11.92;81.98
37904;BME280;23738;50.422;18.758;2022-10-15T06:05:22;98224.37;;;11.96;82.05
37904;BME280;23738;50.422;18.758;2022-10-15T06:07:48;98225.55;;;12.00;82.09
37904;BME280;23738;50.422;18.758;2022-10-15T06:10:14;98227.77;;;12.03;82.02
37904;BME280;23738;50.422;18.758;2022-10-15T06:12:40;98234.23;;;12.07;82.04
37904;BME280;23738;50.422;18.758;2022-10-15T06:15:07;98239.41;;;12.11;82.09
37904;BME280;23738;50.422;18.758;2022-10-15T06:17:33;98231.63;;;12.16;82.07
37904;BME280;23738;50.422;18.758;2022-10-15T06:19:59;98225.91;;;12.19;82.14
37904;BME280;23738;50.422;18.758;2022-10-15T06:22:25;98233.58;;;12.28;82.12
37904;BME280;23738;50.422;18.758;2022-10-15T06:24:51;98233.81;;;12.35;82.01
37904;BME280;23738;50.422;18.758;2022-10-15T06:27:17;98233.81;;;12.35;82.01
37904;BME280;23738;50.422;18.758;2022-10-15T06:29:43;98229.62;;;12.37;82.04
37904;BME280;23738;50.422;18.758;2022-10-15T06:32:10;98232.84;;;12.39;82.01
37904;BME280;23738;50.422;18.758;2022-10-15T06:34:36;98237.51;;;12.43;82.09
37904;BME280;23738;50.422;18.758;2022-10-15T06:37:02;98233.84;;;12.44;82.07
37904;BME280;23738;50.422;18.758;2022-10-15T06:39:28;98235.52;;;12.48;82.08
37904;BME280;23738;50.422;18.758;2022-10-15T06:41:54;98236.42;;;12.51;82.11
37904;BME280;23738;50.422;18.758;2022-10-15T06:44:20;98238.61;;;12.54;81.68
37904;BME280;23738;50.422;18.758;2022-10-15T06:46:46;98247.97;;;12.56;82.08
37904;BME280;23738;50.422;18.758;2022-10-15T06:49:12;98242.76;;;12.59;82.12
37904;BME280;23738;50.422;18.758;2022-10-15T06:51:37;98249.31;;;12.65;82.23
37904;BME280;23738;50.422;18.758;2022-10-15T06:54:03;98250.86;;;12.73;82.22
37904;BME280;23738;50.422;18.758;2022-10-15T06:56:29;98246.59;;;12.81;82.22
37904;BME280;23738;50.422;18.758;2022-10-15T06:58:55;98252.34;;;12.87;82.12
37904;BME280;23738;50.422;18.758;2022-10-15T07:01:20;98259.86;;;12.90;82.15
37904;BME280;23738;50.422;18.758;2022-10-15T07:03:49;98269.14;;;12.99;82.18
37904;BME280;23738;50.422;18.758;2022-10-15T07:06:16;98273.05;;;13.06;82.16
37904;BME280;23738;50.422;18.758;2022-10-15T07:08:42;98267.98;;;13.14;82.20
37904;BME280;23738;50.422;18.758;2022-10-15T07:11:09;98246.05;;;13.16;82.09
37904;BME280;23738;50.422;18.758;2022-10-15T07:13:35;98259.00;;;13.24;82.01
37904;BME280;23738;50.422;18.758;2022-10-15T07:16:06;98261.19;;;13.27;81.99
37904;BME280;23738;50.422;18.758;2022-10-15T07:18:33;98263.70;;;13.31;82.03
37904;BME280;23738;50.422;18.758;2022-10-15T07:21:00;98259.34;;;13.36;82.08
37904;BME280;23738;50.422;18.758;2022-10-15T07:23:27;98257.70;;;13.45;82.16
37904;BME280;23738;50.422;18.758;2022-10-15T07:25:55;98263.00;;;13.54;82.08
37904;BME280;23738;50.422;18.758;2022-10-15T07:28:21;98260.55;;;13.61;81.97
37904;BME280;23738;50.422;18.758;2022-10-15T07:30:47;98261.44;;;13.64;81.89
37904;BME280;23738;50.422;18.758;2022-10-15T07:33:13;98257.80;;;13.68;81.79
37904;BME280;23738;50.422;18.758;2022-10-15T07:35:39;98260.53;;;13.70;81.77
37904;BME280;23738;50.422;18.758;2022-10-15T07:38:05;98264.11;;;13.76;81.87
37904;BME280;23738;50.422;18.758;2022-10-15T07:40:31;98266.16;;;13.83;81.74
37904;BME280;23738;50.422;18.758;2022-10-15T07:42:57;98274.31;;;13.91;81.66
37904;BME280;23738;50.422;18.758;2022-10-15T07:45:25;98272.14;;;13.99;81.63
37904;BME280;23738;50.422;18.758;2022-10-15T07:47:51;98271.81;;;14.07;81.55
37904;BME280;23738;50.422;18.758;2022-10-15T07:50:18;98271.70;;;14.14;81.49
37904;BME280;23738;50.422;18.758;2022-10-15T07:52:44;98265.77;;;14.21;81.51
37904;BME280;23738;50.422;18.758;2022-10-15T07:55:11;98258.86;;;14.32;81.48
37904;BME280;23738;50.422;18.758;2022-10-15T07:57:37;98258.45;;;14.37;81.18
37904;BME280;23738;50.422;18.758;2022-10-15T08:00:04;98256.27;;;14.43;81.12
37904;BME280;23738;50.422;18.758;2022-10-15T08:02:30;98259.84;;;14.49;80.97
37904;BME280;23738;50.422;18.758;2022-10-15T08:04:56;98250.83;;;14.50;80.85
37904;BME280;23738;50.422;18.758;2022-10-15T08:07:22;98250.83;;;14.50;80.85
37904;BME280;23738;50.422;18.758;2022-10-15T08:09:48;98257.94;;;14.59;80.64
37904;BME280;23738;50.422;18.758;2022-10-15T08:12:14;98259.05;;;14.60;80.51
37904;BME280;23738;50.422;18.758;2022-10-15T08:14:39;98261.15;;;14.61;80.45
37904;BME280;23738;50.422;18.758;2022-10-15T08:17:05;98263.65;;;14.65;80.47
37904;BME280;23738;50.422;18.758;2022-10-15T08:19:32;98256.81;;;14.69;80.44
37904;BME280;23738;50.422;18.758;2022-10-15T08:21:58;98257.69;;;14.72;80.39
37904;BME280;23738;50.422;18.758;2022-10-15T08:24:24;98260.00;;;14.80;80.24
37904;BME280;23738;50.422;18.758;2022-10-15T08:26:50;98263.63;;;14.88;80.24
37904;BME280;23738;50.422;18.758;2022-10-15T08:29:16;98269.41;;;14.97;80.11
37904;BME280;23738;50.422;18.758;2022-10-15T08:31:41;98274.88;;;15.04;79.94
37904;BME280;23738;50.422;18.758;2022-10-15T08:34:07;98270.89;;;15.04;79.73
37904;BME280;23738;50.422;18.758;2022-10-15T08:36:33;98282.63;;;15.06;79.80
37904;BME280;23738;50.422;18.758;2022-10-15T08:39:00;98288.28;;;15.09;79.82
37904;BME280;23738;50.422;18.758;2022-10-15T08:41:41;98290.77;;;15.13;79.59
37904;BME280;23738;50.422;18.758;2022-10-15T08:44:27;98292.17;;;15.16;79.30
37904;BME280;23738;50.422;18.758;2022-10-15T08:47:04;98296.77;;;15.20;79.36
37904;BME280;23738;50.422;18.758;2022-10-15T08:52:24;98292.33;;;15.23;79.00
37904;BME280;23738;50.422;18.758;2022-10-15T08:54:52;98293.69;;;15.26;78.98
37904;BME280;23738;50.422;18.758;2022-10-15T09:00:22;98295.00;;;15.38;78.82
37904;BME280;23738;50.422;18.758;2022-10-15T09:06:22;98291.25;;;15.50;78.58
37904;BME280;23738;50.422;18.758;2022-10-15T09:09:16;98290.88;;;15.56;78.47
37904;BME280;23738;50.422;18.758;2022-10-15T09:12:01;98297.56;;;15.58;78.47
37904;BME280;23738;50.422;18.758;2022-10-15T09:14:43;98291.77;;;15.61;78.22
37904;BME280;23738;50.422;18.758;2022-10-15T09:17:21;98290.01;;;15.67;78.14
37904;BME280;23738;50.422;18.758;2022-10-15T09:19:52;98288.79;;;15.72;77.90
37904;BME280;23738;50.422;18.758;2022-10-15T09:22:29;98283.26;;;15.76;77.68
37904;BME280;23738;50.422;18.758;2022-10-15T09:24:53;98282.53;;;15.81;77.74
37904;BME280;23738;50.422;18.758;2022-10-15T09:27:34;98283.45;;;15.86;77.77
37904;BME280;23738;50.422;18.758;2022-10-15T09:30:17;98282.78;;;15.93;77.61
37904;BME280;23738;50.422;18.758;2022-10-15T09:32:57;98282.67;;;16.02;77.40
37904;BME280;23738;50.422;18.758;2022-10-15T09:35:39;98290.82;;;16.13;77.16
37904;BME280;23738;50.422;18.758;2022-10-15T09:38:37;98284.63;;;16.24;77.10
37904;BME280;23738;50.422;18.758;2022-10-15T09:43:56;98287.53;;;16.56;77.08
37904;BME280;23738;50.422;18.758;2022-10-15T09:46:24;98288.97;;;16.97;76.96
37904;BME280;23738;50.422;18.758;2022-10-15T09:49:00;98285.20;;;17.36;76.30
37904;BME280;23738;50.422;18.758;2022-10-15T09:51:39;98294.37;;;17.65;76.17
37904;BME280;23738;50.422;18.758;2022-10-15T09:57:05;98290.55;;;17.80;75.10
37904;BME280;23738;50.422;18.758;2022-10-15T09:59:33;98290.21;;;18.01;74.00
37904;BME280;23738;50.422;18.758;2022-10-15T10:02:24;98288.70;;;18.12;73.45
37904;BME280;23738;50.422;18.758;2022-10-15T10:04:42;98294.33;;;18.13;73.52
37904;BME280;23738;50.422;18.758;2022-10-15T10:09:59;98294.57;;;18.09;73.09
37904;BME280;23738;50.422;18.758;2022-10-15T10:12:31;98295.66;;;18.11;72.64
37904;BME280;23738;50.422;18.758;2022-10-15T10:17:35;98299.42;;;18.15;71.70
37904;BME280;23738;50.422;18.758;2022-10-15T10:25:29;98302.31;;;18.08;69.86
37904;BME280;23738;50.422;18.758;2022-10-15T10:33:33;98312.45;;;17.82;69.99
37904;BME280;23738;50.422;18.758;2022-10-15T10:36:26;98303.79;;;17.70;69.98
37904;BME280;23738;50.422;18.758;2022-10-15T10:41:57;98307.47;;;17.44;69.86
37904;BME280;23738;50.422;18.758;2022-10-15T10:44:32;98308.70;;;17.37;70.38
37904;BME280;23738;50.422;18.758;2022-10-15T10:49:44;98304.95;;;17.35;69.86
37904;BME280;23738;50.422;18.758;2022-10-15T10:52:32;98299.89;;;17.36;69.86
37904;BME280;23738;50.422;18.758;2022-10-15T10:55:03;98302.08;;;17.39;69.26
37904;BME280;23738;50.422;18.758;2022-10-15T10:57:50;98290.88;;;17.40;69.31
37904;BME280;23738;50.422;18.758;2022-10-15T11:00:34;98297.80;;;17.41;68.73
37904;BME280;23738;50.422;18.758;2022-10-15T11:03:05;98287.12;;;17.41;67.93
37904;BME280;23738;50.422;18.758;2022-10-15T11:05:58;98295.94;;;17.41;68.29
37904;BME280;23738;50.422;18.758;2022-10-15T11:11:16;98291.21;;;17.48;66.93
37904;BME280;23738;50.422;18.758;2022-10-15T11:13:56;98288.28;;;17.47;66.58
37904;BME280;23738;50.422;18.758;2022-10-15T11:16:44;98290.44;;;17.50;66.78
37904;BME280;23738;50.422;18.758;2022-10-15T11:19:18;98289.11;;;17.50;66.02
37904;BME280;23738;50.422;18.758;2022-10-15T11:36:14;98295.66;;;17.40;64.84
37904;BME280;23738;50.422;18.758;2022-10-15T11:38:43;98295.66;;;17.40;65.07
37904;BME280;23738;50.422;18.758;2022-10-15T11:56:09;98299.52;;;17.28;64.03
37904;BME280;23738;50.422;18.758;2022-10-15T11:58:40;98295.47;;;17.25;64.17
37904;BME280;23738;50.422;18.758;2022-10-15T12:01:15;98289.83;;;17.21;63.62
37904;BME280;23738;50.422;18.758;2022-10-15T12:03:59;98291.89;;;17.17;63.46
37904;BME280;23738;50.422;18.758;2022-10-15T12:06:19;98291.64;;;17.16;63.60
37904;BME280;23738;50.422;18.758;2022-10-15T12:08:48;98294.56;;;17.17;63.32
37904;BME280;23738;50.422;18.758;2022-10-15T12:11:29;98289.51;;;17.18;63.04
37904;BME280;23738;50.422;18.758;2022-10-15T12:14:15;98283.41;;;17.20;63.27
37904;BME280;23738;50.422;18.758;2022-10-15T12:17:10;98283.73;;;17.26;63.15
37904;BME280;23738;50.422;18.758;2022-10-15T12:20:27;98287.55;;;17.33;63.27
37904;BME280;23738;50.422;18.758;2022-10-15T12:23:00;98285.20;;;17.36;63.40
37904;BME280;23738;50.422;18.758;2022-10-15T12:30:53;98283.39;;;17.42;62.97
37904;BME280;23738;50.422;18.758;2022-10-15T12:33:36;98282.62;;;17.44;62.73
37904;BME280;23738;50.422;18.758;2022-10-15T12:39:01;98283.44;;;17.44;62.34
37904;BME280;23738;50.422;18.758;2022-10-15T12:41:40;98287.16;;;17.43;62.31
37904;BME280;23738;50.422;18.758;2022-10-15T12:44:19;98279.15;;;17.43;62.06
37904;BME280;23738;50.422;18.758;2022-10-15T12:46:49;98278.85;;;17.40;62.39
37904;BME280;23738;50.422;18.758;2022-10-15T12:52:01;98278.58;;;17.41;62.24
37904;BME280;23738;50.422;18.758;2022-10-15T13:00:30;98267.28;;;17.34;62.05
37904;BME280;23738;50.422;18.758;2022-10-15T13:05:41;98277.87;;;17.27;62.10
37904;BME280;23738;50.422;18.758;2022-10-15T13:08:23;98271.15;;;17.21;61.94
37904;BME280;23738;50.422;18.758;2022-10-15T13:10:56;98274.01;;;17.15;61.98
37904;BME280;23738;50.422;18.758;2022-10-15T13:13:28;98282.25;;;17.13;61.85
37904;BME280;23738;50.422;18.758;2022-10-15T13:16:00;98276.06;;;17.10;61.98
37904;BME280;23738;50.422;18.758;2022-10-15T13:18:28;98274.97;;;17.09;61.99
37904;BME280;23738;50.422;18.758;2022-10-15T13:20:55;98273.91;;;17.07;61.95
37904;BME280;23738;50.422;18.758;2022-10-15T13:23:30;98278.68;;;17.05;61.86
37904;BME280;23738;50.422;18.758;2022-10-15T13:26:18;98272.49;;;17.02;61.64
37904;BME280;23738;50.422;18.758;2022-10-15T13:28:49;98271.40;;;17.01;61.92
37904;BME280;23738;50.422;18.758;2022-10-15T13:31:25;98261.52;;;16.99;61.92
37904;BME280;23738;50.422;18.758;2022-10-15T13:34:04;98256.99;;;16.99;62.03
37904;BME280;23738;50.422;18.758;2022-10-15T13:36:32;98260.19;;;16.99;61.92
37904;BME280;23738;50.422;18.758;2022-10-15T13:39:04;98259.09;;;16.97;61.94
37904;BME280;23738;50.422;18.758;2022-10-15T13:41:37;98263.05;;;16.95;62.00
37904;BME280;23738;50.422;18.758;2022-10-15T13:44:18;98262.48;;;16.93;62.06
37904;BME280;23738;50.422;18.758;2022-10-15T13:46:46;98269.97;;;16.93;62.15
37904;BME280;23738;50.422;18.758;2022-10-15T13:49:12;98268.11;;;16.94;62.17
37904;BME280;23738;50.422;18.758;2022-10-15T13:51:44;98274.48;;;16.93;62.07
37904;BME280;23738;50.422;18.758;2022-10-15T13:54:18;98270.48;;;16.93;62.20
37904;BME280;23738;50.422;18.758;2022-10-15T13:56:54;98271.30;;;16.93;62.20
37904;BME280;23738;50.422;18.758;2022-10-15T13:59:24;98277.97;;;16.93;62.26
37904;BME280;23738;50.422;18.758;2022-10-15T14:01:55;98281.73;;;16.95;62.38
37904;BME280;23738;50.422;18.758;2022-10-15T14:04:30;98277.44;;;16.94;62.45
37904;BME280;23738;50.422;18.758;2022-10-15T14:06:59;98281.97;;;16.93;62.34
37904;BME280;23738;50.422;18.758;2022-10-15T14:09:35;98276.09;;;16.91;62.38
37904;BME280;23738;50.422;18.758;2022-10-15T14:12:06;98278.23;;;16.92;62.35
37904;BME280;23738;50.422;18.758;2022-10-15T14:14:35;98278.48;;;16.90;62.44
37904;BME280;23738;50.422;18.758;2022-10-15T14:17:25;98280.05;;;16.89;62.47
37904;BME280;23738;50.422;18.758;2022-10-15T14:19:53;98284.58;;;16.88;62.45
37904;BME280;23738;50.422;18.758;2022-10-15T14:22:22;98280.81;;;16.87;62.56
37904;BME280;23738;50.422;18.758;2022-10-15T14:24:51;98284.00;;;16.86;62.73
37904;BME280;23738;50.422;18.758;2022-10-15T14:27:21;98284.30;;;16.87;62.94
37904;BME280;23738;50.422;18.758;2022-10-15T14:29:53;98292.34;;;16.90;62.97
37904;BME280;23738;50.422;18.758;2022-10-15T14:32:24;98292.91;;;16.92;62.88
37904;BME280;23738;50.422;18.758;2022-10-15T14:40:11;98286.48;;;16.90;62.36
37904;BME280;23738;50.422;18.758;2022-10-15T14:43:00;98287.24;;;16.88;62.24
37904;BME280;23738;50.422;18.758;2022-10-15T14:45:25;98286.44;;;16.88;62.22
37904;BME280;23738;50.422;18.758;2022-10-15T14:48:05;98284.30;;;16.87;61.93
37904;BME280;23738;50.422;18.758;2022-10-15T14:50:40;98284.53;;;16.86;61.88
37904;BME280;23738;50.422;18.758;2022-10-15T14:53:08;98281.56;;;16.82;61.67
37904;BME280;23738;50.422;18.758;2022-10-15T14:55:59;98291.14;;;16.80;61.59
37904;BME280;23738;50.422;18.758;2022-10-15T14:58:22;98293.75;;;16.75;61.39
37904;BME280;23738;50.422;18.758;2022-10-15T15:00:48;98291.55;;;16.72;61.46
37904;BME280;23738;50.422;18.758;2022-10-15T15:03:29;98288.84;;;16.70;61.57
37904;BME280;23738;50.422;18.758;2022-10-15T15:05:57;98281.87;;;16.66;61.57
37904;BME280;23738;50.422;18.758;2022-10-15T15:08:24;98291.11;;;16.61;61.69
37904;BME280;23738;50.422;18.758;2022-10-15T15:10:51;98297.67;;;16.56;61.76
37904;BME280;23738;50.422;18.758;2022-10-15T15:13:22;98287.99;;;16.50;61.81
37904;BME280;23738;50.422;18.758;2022-10-15T15:15:49;98293.80;;;16.47;61.89
37904;BME280;23738;50.422;18.758;2022-10-15T15:18:16;98299.37;;;16.45;61.80
37904;BME280;23738;50.422;18.758;2022-10-15T15:20:42;98305.16;;;16.40;61.84